CheckWX is a tool to help pilots better visualize weather data.  It is not intended as a substitute for an official pre-flight weather briefing.

20:36:40 UTC

KGDV METAR
Dawson Community Airport
Glendive, Montana, USA
Current

41 mins ago

KGDV 181956Z AUTO 24005KT 7SM OVC035 M14/M19 A3039 RMK AO2 SLP355 T11391194 FZRANO
Observed
Feb-18 @ 19:56 UTC
Wind
  • 240° at 5 KTS
Visibility
7 SM
Flight Rules
VFR
Cloud Levels
  • Overcast at 3,500' AGL
Temperature
-14°C / 7°F
Dewpoint
-19°C / -2°F
Humidity
66%
Altimeter
30.39" Hg
Pressure
1035.5 hPa
Previous

2 hours ago

KGDV 181856Z AUTO 24004KT 10SM SCT043 BKN050 M15/M20 A3041 RMK AO2 SLP362 T11501200 FZRANO
Observed
Feb-18 @ 18:56 UTC
Wind
  • 240° at 4 KTS
Visibility
10 SM
Flight Rules
VFR
Cloud Levels
  • Scattered at 4,300' AGL
  • Broken at 5,000' AGL
Temperature
-15°C / 5°F
Dewpoint
-20°C / -4°F
Humidity
66%
Altimeter
30.41" Hg
Pressure
1036.2 hPa
Previous

3 hours ago

KGDV 181756Z AUTO 24005KT 9SM CLR M16/M21 A3041 RMK AO2 SLP365 60000 T11561206 11150 21194 53005 FZRANO
Observed
Feb-18 @ 17:56 UTC
Wind
  • 240° at 5 KTS
Visibility
9 SM
Flight Rules
VFR
Cloud Levels
  • Clear skies
Temperature
-16°C / 3°F
Dewpoint
-21°C / -6°F
Humidity
66%
Altimeter
30.41" Hg
Pressure
1036.5 hPa